sensor_id;sensor_type;location;lat;lon;timestamp;P1;durP1;ratioP1;P2;durP2;ratioP2
59458;SDS011;45269;43.568;22.244;2023-02-28T00:00:06;52.42;;;42.30;;
59458;SDS011;45269;43.568;22.244;2023-02-28T00:02:35;49.80;;;39.92;;
59458;SDS011;45269;43.568;22.244;2023-02-28T00:05:00;50.63;;;41.30;;
59458;SDS011;45269;43.568;22.244;2023-02-28T00:07:28;50.67;;;38.17;;
59458;SDS011;45269;43.568;22.244;2023-02-28T00:09:54;64.47;;;48.95;;
59458;SDS011;45269;43.568;22.244;2023-02-28T00:12:19;71.45;;;56.55;;
59458;SDS011;45269;43.568;22.244;2023-02-28T00:14:44;70.88;;;53.55;;
59458;SDS011;45269;43.568;22.244;2023-02-28T00:17:10;82.75;;;61.53;;
59458;SDS011;45269;43.568;22.244;2023-02-28T00:19:35;115.80;;;85.22;;
59458;SDS011;45269;43.568;22.244;2023-02-28T00:22:00;101.68;;;75.10;;
59458;SDS011;45269;43.568;22.244;2023-02-28T00:24:25;97.10;;;72.97;;
59458;SDS011;45269;43.568;22.244;2023-02-28T00:26:51;74.57;;;55.47;;
59458;SDS011;45269;43.568;22.244;2023-02-28T00:29:16;64.95;;;49.13;;
59458;SDS011;45269;43.568;22.244;2023-02-28T00:31:41;62.25;;;46.22;;
59458;SDS011;45269;43.568;22.244;2023-02-28T00:34:07;56.28;;;44.63;;
59458;SDS011;45269;43.568;22.244;2023-02-28T00:36:32;55.05;;;44.42;;
59458;SDS011;45269;43.568;22.244;2023-02-28T00:38:57;55.10;;;42.80;;
59458;SDS011;45269;43.568;22.244;2023-02-28T00:41:23;52.85;;;42.15;;
59458;SDS011;45269;43.568;22.244;2023-02-28T00:43:48;50.33;;;40.42;;
59458;SDS011;45269;43.568;22.244;2023-02-28T00:46:13;50.50;;;40.50;;
59458;SDS011;45269;43.568;22.244;2023-02-28T00:48:38;47.95;;;40.78;;
59458;SDS011;45269;43.568;22.244;2023-02-28T00:51:04;50.80;;;40.97;;
59458;SDS011;45269;43.568;22.244;2023-02-28T00:53:29;51.85;;;40.88;;
59458;SDS011;45269;43.568;22.244;2023-02-28T00:55:55;56.25;;;44.85;;
59458;SDS011;45269;43.568;22.244;2023-02-28T00:58:20;52.70;;;42.38;;
59458;SDS011;45269;43.568;22.244;2023-02-28T01:00:46;55.17;;;44.72;;
59458;SDS011;45269;43.568;22.244;2023-02-28T01:03:16;52.88;;;42.33;;
59458;SDS011;45269;43.568;22.244;2023-02-28T01:05:42;52.58;;;43.40;;
59458;SDS011;45269;43.568;22.244;2023-02-28T01:08:08;52.13;;;42.50;;
59458;SDS011;45269;43.568;22.244;2023-02-28T01:10:33;51.90;;;40.78;;
59458;SDS011;45269;43.568;22.244;2023-02-28T01:12:58;52.63;;;40.90;;
59458;SDS011;45269;43.568;22.244;2023-02-28T01:15:24;50.47;;;40.05;;
59458;SDS011;45269;43.568;22.244;2023-02-28T01:17:49;50.08;;;40.22;;
59458;SDS011;45269;43.568;22.244;2023-02-28T01:20:14;50.10;;;40.08;;
59458;SDS011;45269;43.568;22.244;2023-02-28T01:22:40;49.72;;;39.47;;
59458;SDS011;45269;43.568;22.244;2023-02-28T01:25:05;53.83;;;43.58;;
59458;SDS011;45269;43.568;22.244;2023-02-28T01:27:30;54.25;;;42.85;;
59458;SDS011;45269;43.568;22.244;2023-02-28T01:29:56;59.10;;;44.70;;
59458;SDS011;45269;43.568;22.244;2023-02-28T01:32:21;62.47;;;46.60;;
59458;SDS011;45269;43.568;22.244;2023-02-28T01:34:46;67.60;;;51.10;;
59458;SDS011;45269;43.568;22.244;2023-02-28T01:37:12;61.20;;;47.92;;
59458;SDS011;45269;43.568;22.244;2023-02-28T01:39:37;62.40;;;47.40;;
59458;SDS011;45269;43.568;22.244;2023-02-28T01:42:02;54.42;;;42.97;;
59458;SDS011;45269;43.568;22.244;2023-02-28T01:47:12;73.95;;;52.85;;
59458;SDS011;45269;43.568;22.244;2023-02-28T01:49:37;71.95;;;53.42;;
59458;SDS011;45269;43.568;22.244;2023-02-28T01:52:03;86.63;;;60.58;;
59458;SDS011;45269;43.568;22.244;2023-02-28T01:54:29;76.72;;;53.50;;
59458;SDS011;45269;43.568;22.244;2023-02-28T01:56:57;64.72;;;51.67;;
59458;SDS011;45269;43.568;22.244;2023-02-28T01:59:27;65.05;;;50.22;;
59458;SDS011;45269;43.568;22.244;2023-02-28T02:01:54;65.05;;;50.08;;
59458;SDS011;45269;43.568;22.244;2023-02-28T02:04:19;68.55;;;53.33;;
59458;SDS011;45269;43.568;22.244;2023-02-28T02:06:46;70.75;;;53.33;;
59458;SDS011;45269;43.568;22.244;2023-02-28T02:09:12;68.85;;;51.50;;
59458;SDS011;45269;43.568;22.244;2023-02-28T02:11:39;66.63;;;51.78;;
59458;SDS011;45269;43.568;22.244;2023-02-28T02:29:26;59.92;;;47.67;;
59458;SDS011;45269;43.568;22.244;2023-02-28T02:39:58;69.43;;;51.70;;
59458;SDS011;45269;43.568;22.244;2023-02-28T02:42:29;68.35;;;53.00;;
59458;SDS011;45269;43.568;22.244;2023-02-28T02:45:17;69.05;;;53.22;;
59458;SDS011;45269;43.568;22.244;2023-02-28T02:47:44;67.28;;;54.92;;
59458;SDS011;45269;43.568;22.244;2023-02-28T02:50:14;62.83;;;49.38;;
59458;SDS011;45269;43.568;22.244;2023-02-28T02:52:43;61.45;;;50.83;;
59458;SDS011;45269;43.568;22.244;2023-02-28T02:55:10;69.82;;;54.35;;
59458;SDS011;45269;43.568;22.244;2023-02-28T02:57:40;68.72;;;52.55;;
59458;SDS011;45269;43.568;22.244;2023-02-28T03:02:35;65.95;;;50.67;;
59458;SDS011;45269;43.568;22.244;2023-02-28T03:05:07;68.28;;;52.92;;
59458;SDS011;45269;43.568;22.244;2023-02-28T03:07:33;63.13;;;49.38;;
59458;SDS011;45269;43.568;22.244;2023-02-28T03:09:58;66.53;;;50.67;;
59458;SDS011;45269;43.568;22.244;2023-02-28T03:12:27;69.88;;;51.67;;
59458;SDS011;45269;43.568;22.244;2023-02-28T03:25:17;56.50;;;44.22;;
59458;SDS011;45269;43.568;22.244;2023-02-28T03:32:45;62.22;;;47.63;;
59458;SDS011;45269;43.568;22.244;2023-02-28T03:35:20;75.47;;;55.80;;
59458;SDS011;45269;43.568;22.244;2023-02-28T03:37:47;101.13;;;77.72;;
59458;SDS011;45269;43.568;22.244;2023-02-28T03:40:14;84.80;;;64.70;;
59458;SDS011;45269;43.568;22.244;2023-02-28T03:42:41;79.28;;;60.53;;
59458;SDS011;45269;43.568;22.244;2023-02-28T03:48:13;75.93;;;59.22;;
59458;SDS011;45269;43.568;22.244;2023-02-28T03:50:41;70.32;;;56.33;;
59458;SDS011;45269;43.568;22.244;2023-02-28T03:53:53;66.47;;;50.13;;
59458;SDS011;45269;43.568;22.244;2023-02-28T03:56:11;58.15;;;47.40;;
59458;SDS011;45269;43.568;22.244;2023-02-28T03:58:47;66.80;;;50.88;;
59458;SDS011;45269;43.568;22.244;2023-02-28T04:01:15;60.83;;;51.08;;
59458;SDS011;45269;43.568;22.244;2023-02-28T04:03:41;69.60;;;56.03;;
59458;SDS011;45269;43.568;22.244;2023-02-28T04:06:08;60.92;;;49.80;;
59458;SDS011;45269;43.568;22.244;2023-02-28T04:08:37;62.40;;;48.30;;
59458;SDS011;45269;43.568;22.244;2023-02-28T04:11:06;59.42;;;48.15;;
59458;SDS011;45269;43.568;22.244;2023-02-28T04:13:36;57.50;;;44.03;;
59458;SDS011;45269;43.568;22.244;2023-02-28T04:16:01;58.58;;;46.38;;
59458;SDS011;45269;43.568;22.244;2023-02-28T04:18:36;55.65;;;44.75;;
59458;SDS011;45269;43.568;22.244;2023-02-28T04:21:02;52.70;;;41.95;;
59458;SDS011;45269;43.568;22.244;2023-02-28T04:23:27;82.43;;;61.03;;
59458;SDS011;45269;43.568;22.244;2023-02-28T04:25:54;74.35;;;56.30;;
59458;SDS011;45269;43.568;22.244;2023-02-28T04:28:19;64.35;;;50.83;;
59458;SDS011;45269;43.568;22.244;2023-02-28T04:30:45;57.00;;;45.05;;
59458;SDS011;45269;43.568;22.244;2023-02-28T04:33:10;50.20;;;39.35;;
59458;SDS011;45269;43.568;22.244;2023-02-28T04:35:35;51.13;;;39.42;;
59458;SDS011;45269;43.568;22.244;2023-02-28T04:38:00;53.28;;;42.03;;
59458;SDS011;45269;43.568;22.244;2023-02-28T04:40:26;51.40;;;39.35;;
59458;SDS011;45269;43.568;22.244;2023-02-28T04:42:51;49.92;;;38.88;;
59458;SDS011;45269;43.568;22.244;2023-02-28T04:45:16;51.40;;;39.28;;
59458;SDS011;45269;43.568;22.244;2023-02-28T04:47:42;51.92;;;39.58;;
59458;SDS011;45269;43.568;22.244;2023-02-28T04:50:07;49.90;;;38.60;;
59458;SDS011;45269;43.568;22.244;2023-02-28T04:52:33;53.03;;;42.38;;
59458;SDS011;45269;43.568;22.244;2023-02-28T04:54:59;57.92;;;44.00;;
59458;SDS011;45269;43.568;22.244;2023-02-28T04:57:24;62.03;;;46.67;;
59458;SDS011;45269;43.568;22.244;2023-02-28T04:59:50;61.88;;;47.05;;
59458;SDS011;45269;43.568;22.244;2023-02-28T05:02:15;57.03;;;45.22;;
59458;SDS011;45269;43.568;22.244;2023-02-28T05:04:40;57.33;;;45.50;;
59458;SDS011;45269;43.568;22.244;2023-02-28T05:07:06;60.97;;;47.67;;
59458;SDS011;45269;43.568;22.244;2023-02-28T05:09:31;63.50;;;47.00;;
59458;SDS011;45269;43.568;22.244;2023-02-28T05:11:57;65.97;;;51.28;;
59458;SDS011;45269;43.568;22.244;2023-02-28T05:14:23;60.10;;;46.33;;
59458;SDS011;45269;43.568;22.244;2023-02-28T05:16:48;71.07;;;53.75;;
59458;SDS011;45269;43.568;22.244;2023-02-28T05:19:13;62.53;;;48.40;;
59458;SDS011;45269;43.568;22.244;2023-02-28T05:21:40;68.32;;;53.90;;
59458;SDS011;45269;43.568;22.244;2023-02-28T05:24:08;76.13;;;57.25;;
59458;SDS011;45269;43.568;22.244;2023-02-28T05:26:34;120.75;;;87.63;;
59458;SDS011;45269;43.568;22.244;2023-02-28T05:29:00;284.85;;;215.25;;
59458;SDS011;45269;43.568;22.244;2023-02-28T05:31:25;173.40;;;135.68;;
59458;SDS011;45269;43.568;22.244;2023-02-28T05:33:51;197.07;;;152.98;;
59458;SDS011;45269;43.568;22.244;2023-02-28T05:36:16;81.78;;;63.30;;
59458;SDS011;45269;43.568;22.244;2023-02-28T05:38:42;86.88;;;73.75;;
59458;SDS011;45269;43.568;22.244;2023-02-28T05:41:08;79.65;;;60.28;;
59458;SDS011;45269;43.568;22.244;2023-02-28T05:43:33;72.90;;;54.15;;
59458;SDS011;45269;43.568;22.244;2023-02-28T05:45:59;101.20;;;72.75;;
59458;SDS011;45269;43.568;22.244;2023-02-28T05:48:24;73.20;;;54.17;;
59458;SDS011;45269;43.568;22.244;2023-02-28T05:50:50;123.07;;;93.30;;
59458;SDS011;45269;43.568;22.244;2023-02-28T05:53:16;67.57;;;51.47;;
59458;SDS011;45269;43.568;22.244;2023-02-28T05:55:41;59.75;;;43.88;;
59458;SDS011;45269;43.568;22.244;2023-02-28T05:58:06;87.18;;;65.53;;
59458;SDS011;45269;43.568;22.244;2023-02-28T06:00:32;84.38;;;62.20;;
59458;SDS011;45269;43.568;22.244;2023-02-28T06:02:57;67.07;;;51.47;;
59458;SDS011;45269;43.568;22.244;2023-02-28T06:05:26;51.92;;;41.80;;
59458;SDS011;45269;43.568;22.244;2023-02-28T06:07:52;49.63;;;39.47;;
59458;SDS011;45269;43.568;22.244;2023-02-28T06:10:17;52.45;;;42.65;;
59458;SDS011;45269;43.568;22.244;2023-02-28T06:12:42;61.42;;;48.05;;
59458;SDS011;45269;43.568;22.244;2023-02-28T06:15:14;65.65;;;49.00;;
59458;SDS011;45269;43.568;22.244;2023-02-28T06:17:40;101.93;;;71.90;;
59458;SDS011;45269;43.568;22.244;2023-02-28T06:20:07;111.68;;;75.60;;
59458;SDS011;45269;43.568;22.244;2023-02-28T06:22:32;80.90;;;59.03;;
59458;SDS011;45269;43.568;22.244;2023-02-28T06:24:57;66.38;;;50.25;;
59458;SDS011;45269;43.568;22.244;2023-02-28T06:27:23;90.20;;;63.53;;
59458;SDS011;45269;43.568;22.244;2023-02-28T06:29:48;81.47;;;56.85;;
59458;SDS011;45269;43.568;22.244;2023-02-28T06:32:14;118.15;;;87.55;;
59458;SDS011;45269;43.568;22.244;2023-02-28T06:34:39;120.90;;;86.78;;
59458;SDS011;45269;43.568;22.244;2023-02-28T06:37:04;88.03;;;63.60;;
59458;SDS011;45269;43.568;22.244;2023-02-28T06:39:30;71.53;;;54.58;;
59458;SDS011;45269;43.568;22.244;2023-02-28T06:41:56;68.85;;;52.85;;
59458;SDS011;45269;43.568;22.244;2023-02-28T06:44:21;69.90;;;52.95;;
59458;SDS011;45269;43.568;22.244;2023-02-28T06:46:48;64.82;;;51.95;;
59458;SDS011;45269;43.568;22.244;2023-02-28T06:49:13;63.83;;;49.13;;
59458;SDS011;45269;43.568;22.244;2023-02-28T06:51:40;64.95;;;50.75;;
59458;SDS011;45269;43.568;22.244;2023-02-28T06:54:06;73.00;;;53.38;;
59458;SDS011;45269;43.568;22.244;2023-02-28T06:56:34;60.40;;;45.97;;
59458;SDS011;45269;43.568;22.244;2023-02-28T06:59:00;59.08;;;44.10;;
59458;SDS011;45269;43.568;22.244;2023-02-28T07:01:25;66.95;;;48.13;;
59458;SDS011;45269;43.568;22.244;2023-02-28T07:03:52;70.32;;;50.03;;
59458;SDS011;45269;43.568;22.244;2023-02-28T07:06:19;70.90;;;51.58;;
59458;SDS011;45269;43.568;22.244;2023-02-28T07:08:44;73.65;;;56.65;;
59458;SDS011;45269;43.568;22.244;2023-02-28T07:11:09;93.43;;;70.60;;
59458;SDS011;45269;43.568;22.244;2023-02-28T07:13:35;134.85;;;92.43;;
59458;SDS011;45269;43.568;22.244;2023-02-28T07:16:01;128.07;;;93.47;;
59458;SDS011;45269;43.568;22.244;2023-02-28T07:18:27;61.97;;;47.92;;
59458;SDS011;45269;43.568;22.244;2023-02-28T07:20:52;58.25;;;45.28;;
59458;SDS011;45269;43.568;22.244;2023-02-28T07:23:18;55.05;;;44.13;;
59458;SDS011;45269;43.568;22.244;2023-02-28T07:25:43;172.57;;;102.75;;
59458;SDS011;45269;43.568;22.244;2023-02-28T07:28:09;60.38;;;45.10;;
59458;SDS011;45269;43.568;22.244;2023-02-28T07:30:34;79.45;;;59.35;;
59458;SDS011;45269;43.568;22.244;2023-02-28T07:32:59;64.45;;;46.60;;
59458;SDS011;45269;43.568;22.244;2023-02-28T07:35:25;81.60;;;58.13;;
59458;SDS011;45269;43.568;22.244;2023-02-28T07:37:50;111.55;;;78.50;;
59458;SDS011;45269;43.568;22.244;2023-02-28T07:40:15;97.93;;;69.30;;
59458;SDS011;45269;43.568;22.244;2023-02-28T07:42:42;83.45;;;62.58;;
59458;SDS011;45269;43.568;22.244;2023-02-28T07:45:08;91.45;;;70.38;;
59458;SDS011;45269;43.568;22.244;2023-02-28T07:47:36;85.35;;;65.15;;
59458;SDS011;45269;43.568;22.244;2023-02-28T07:50:02;63.35;;;48.83;;
59458;SDS011;45269;43.568;22.244;2023-02-28T07:52:27;57.00;;;41.55;;
59458;SDS011;45269;43.568;22.244;2023-02-28T07:54:52;63.67;;;49.58;;
59458;SDS011;45269;43.568;22.244;2023-02-28T07:57:18;146.63;;;111.15;;
59458;SDS011;45269;43.568;22.244;2023-02-28T07:59:43;52.22;;;41.60;;
59458;SDS011;45269;43.568;22.244;2023-02-28T08:02:15;45.30;;;35.35;;
59458;SDS011;45269;43.568;22.244;2023-02-28T08:04:41;45.72;;;37.72;;
59458;SDS011;45269;43.568;22.244;2023-02-28T08:07:06;86.63;;;70.13;;
59458;SDS011;45269;43.568;22.244;2023-02-28T08:09:32;65.32;;;52.35;;
59458;SDS011;45269;43.568;22.244;2023-02-28T08:11:59;59.20;;;49.25;;
59458;SDS011;45269;43.568;22.244;2023-02-28T08:14:24;58.05;;;47.65;;
59458;SDS011;45269;43.568;22.244;2023-02-28T08:16:49;76.07;;;62.08;;
59458;SDS011;45269;43.568;22.244;2023-02-28T08:19:15;84.82;;;66.70;;
59458;SDS011;45269;43.568;22.244;2023-02-28T08:21:40;85.88;;;67.70;;
59458;SDS011;45269;43.568;22.244;2023-02-28T08:24:05;177.00;;;119.03;;
59458;SDS011;45269;43.568;22.244;2023-02-28T08:26:31;197.23;;;137.93;;
59458;SDS011;45269;43.568;22.244;2023-02-28T08:28:56;149.15;;;103.15;;
59458;SDS011;45269;43.568;22.244;2023-02-28T08:31:21;74.05;;;48.63;;
59458;SDS011;45269;43.568;22.244;2023-02-28T08:33:48;83.13;;;58.05;;
59458;SDS011;45269;43.568;22.244;2023-02-28T08:36:16;49.15;;;39.40;;
59458;SDS011;45269;43.568;22.244;2023-02-28T08:38:41;16.85;;;15.10;;
59458;SDS011;45269;43.568;22.244;2023-02-28T08:41:08;28.25;;;25.25;;
59458;SDS011;45269;43.568;22.244;2023-02-28T08:43:34;78.13;;;49.92;;
59458;SDS011;45269;43.568;22.244;2023-02-28T08:46:00;21.17;;;17.27;;
59458;SDS011;45269;43.568;22.244;2023-02-28T08:48:26;81.45;;;61.08;;
59458;SDS011;45269;43.568;22.244;2023-02-28T08:51:10;84.55;;;64.25;;
59458;SDS011;45269;43.568;22.244;2023-02-28T08:53:36;176.02;;;128.75;;
59458;SDS011;45269;43.568;22.244;2023-02-28T08:56:06;135.57;;;99.32;;
59458;SDS011;45269;43.568;22.244;2023-02-28T09:00:57;52.77;;;38.60;;
59458;SDS011;45269;43.568;22.244;2023-02-28T09:03:22;45.30;;;34.08;;
59458;SDS011;45269;43.568;22.244;2023-02-28T09:06:00;47.40;;;35.05;;
59458;SDS011;45269;43.568;22.244;2023-02-28T09:08:26;42.05;;;33.30;;
59458;SDS011;45269;43.568;22.244;2023-02-28T09:10:52;34.80;;;25.98;;
59458;SDS011;45269;43.568;22.244;2023-02-28T09:13:19;52.42;;;36.40;;
59458;SDS011;45269;43.568;22.244;2023-02-28T09:15:44;43.40;;;31.55;;
59458;SDS011;45269;43.568;22.244;2023-02-28T09:18:10;21.80;;;15.60;;
59458;SDS011;45269;43.568;22.244;2023-02-28T09:20:38;38.40;;;32.70;;
59458;SDS011;45269;43.568;22.244;2023-02-28T09:23:05;22.77;;;18.02;;
59458;SDS011;45269;43.568;22.244;2023-02-28T09:25:30;37.58;;;26.38;;
59458;SDS011;45269;43.568;22.244;2023-02-28T09:27:55;48.30;;;30.92;;
59458;SDS011;45269;43.568;22.244;2023-02-28T09:30:21;63.90;;;36.05;;
59458;SDS011;45269;43.568;22.244;2023-02-28T09:32:46;40.75;;;26.00;;
59458;SDS011;45269;43.568;22.244;2023-02-28T09:35:17;29.70;;;23.80;;
59458;SDS011;45269;43.568;22.244;2023-02-28T09:37:43;41.47;;;29.13;;
59458;SDS011;45269;43.568;22.244;2023-02-28T09:40:08;18.27;;;13.40;;
59458;SDS011;45269;43.568;22.244;2023-02-28T09:42:34;17.33;;;13.30;;
59458;SDS011;45269;43.568;22.244;2023-02-28T09:45:05;13.60;;;10.05;;
59458;SDS011;45269;43.568;22.244;2023-02-28T09:49:58;10.57;;;8.38;;
59458;SDS011;45269;43.568;22.244;2023-02-28T09:52:28;16.48;;;12.05;;
59458;SDS011;45269;43.568;22.244;2023-02-28T09:54:55;14.10;;;11.73;;
59458;SDS011;45269;43.568;22.244;2023-02-28T09:57:35;11.60;;;10.43;;
59458;SDS011;45269;43.568;22.244;2023-02-28T10:05:18;37.70;;;22.30;;
59458;SDS011;45269;43.568;22.244;2023-02-28T10:07:53;9.95;;;8.95;;
59458;SDS011;45269;43.568;22.244;2023-02-28T10:10:32;9.43;;;7.35;;
59458;SDS011;45269;43.568;22.244;2023-02-28T10:12:58;18.13;;;14.57;;
59458;SDS011;45269;43.568;22.244;2023-02-28T10:15:25;16.85;;;13.15;;
59458;SDS011;45269;43.568;22.244;2023-02-28T10:17:56;21.33;;;19.05;;
59458;SDS011;45269;43.568;22.244;2023-02-28T10:20:23;8.18;;;7.30;;
59458;SDS011;45269;43.568;22.244;2023-02-28T10:25:38;26.83;;;18.17;;
59458;SDS011;45269;43.568;22.244;2023-02-28T10:30:32;14.77;;;12.82;;
59458;SDS011;45269;43.568;22.244;2023-02-28T10:32:58;10.15;;;9.15;;
59458;SDS011;45269;43.568;22.244;2023-02-28T10:35:26;49.20;;;27.17;;
59458;SDS011;45269;43.568;22.244;2023-02-28T10:37:55;46.65;;;27.65;;
59458;SDS011;45269;43.568;22.244;2023-02-28T10:45:24;123.03;;;74.95;;
59458;SDS011;45269;43.568;22.244;2023-02-28T10:47:51;33.80;;;21.10;;
59458;SDS011;45269;43.568;22.244;2023-02-28T10:50:31;8.38;;;6.40;;
59458;SDS011;45269;43.568;22.244;2023-02-28T10:55:35;12.85;;;11.55;;
59458;SDS011;45269;43.568;22.244;2023-02-28T10:58:01;65.88;;;37.92;;
59458;SDS011;45269;43.568;22.244;2023-02-28T11:00:31;33.00;;;21.13;;
59458;SDS011;45269;43.568;22.244;2023-02-28T11:02:57;20.67;;;13.85;;
59458;SDS011;45269;43.568;22.244;2023-02-28T11:07:55;24.15;;;19.05;;
59458;SDS011;45269;43.568;22.244;2023-02-28T11:10:21;58.25;;;36.50;;
59458;SDS011;45269;43.568;22.244;2023-02-28T11:12:48;117.15;;;50.92;;
59458;SDS011;45269;43.568;22.244;2023-02-28T11:17:52;47.17;;;26.02;;
59458;SDS011;45269;43.568;22.244;2023-02-28T11:20:20;16.17;;;11.55;;
59458;SDS011;45269;43.568;22.244;2023-02-28T11:22:46;14.95;;;11.70;;
59458;SDS011;45269;43.568;22.244;2023-02-28T11:25:25;22.00;;;17.38;;
59458;SDS011;45269;43.568;22.244;2023-02-28T11:27:52;12.02;;;8.98;;
59458;SDS011;45269;43.568;22.244;2023-02-28T11:30:40;9.35;;;7.80;;
59458;SDS011;45269;43.568;22.244;2023-02-28T11:35:47;8.13;;;6.80;;
59458;SDS011;45269;43.568;22.244;2023-02-28T11:38:14;14.55;;;11.55;;
59458;SDS011;45269;43.568;22.244;2023-02-28T11:40:45;8.10;;;7.22;;
59458;SDS011;45269;43.568;22.244;2023-02-28T11:51:01;15.45;;;11.52;;
59458;SDS011;45269;43.568;22.244;2023-02-28T11:56:49;10.38;;;7.97;;
59458;SDS011;45269;43.568;22.244;2023-02-28T11:59:10;7.93;;;6.45;;
59458;SDS011;45269;43.568;22.244;2023-02-28T12:11:55;40.05;;;26.83;;
59458;SDS011;45269;43.568;22.244;2023-02-28T12:17:00;12.18;;;8.43;;
59458;SDS011;45269;43.568;22.244;2023-02-28T12:27:03;179.90;;;96.35;;
59458;SDS011;45269;43.568;22.244;2023-02-28T12:29:32;56.35;;;33.35;;
59458;SDS011;45269;43.568;22.244;2023-02-28T12:32:01;129.57;;;69.15;;
59458;SDS011;45269;43.568;22.244;2023-02-28T12:34:31;107.03;;;57.15;;
59458;SDS011;45269;43.568;22.244;2023-02-28T12:36:58;56.08;;;37.13;;
59458;SDS011;45269;43.568;22.244;2023-02-28T12:39:27;36.45;;;22.17;;
59458;SDS011;45269;43.568;22.244;2023-02-28T12:42:05;27.20;;;17.10;;
59458;SDS011;45269;43.568;22.244;2023-02-28T12:44:46;35.67;;;23.52;;
59458;SDS011;45269;43.568;22.244;2023-02-28T12:47:14;26.70;;;18.08;;
59458;SDS011;45269;43.568;22.244;2023-02-28T12:52:25;16.13;;;11.00;;
59458;SDS011;45269;43.568;22.244;2023-02-28T12:54:56;11.98;;;8.57;;
59458;SDS011;45269;43.568;22.244;2023-02-28T12:57:28;19.33;;;12.80;;
59458;SDS011;45269;43.568;22.244;2023-02-28T13:00:17;27.75;;;15.23;;
59458;SDS011;45269;43.568;22.244;2023-02-28T13:02:50;15.30;;;11.20;;
59458;SDS011;45269;43.568;22.244;2023-02-28T13:05:25;9.45;;;8.00;;
59458;SDS011;45269;43.568;22.244;2023-02-28T13:10:45;15.32;;;11.82;;
59458;SDS011;45269;43.568;22.244;2023-02-28T13:13:18;10.68;;;9.30;;
59458;SDS011;45269;43.568;22.244;2023-02-28T13:15:56;6.32;;;5.35;;
59458;SDS011;45269;43.568;22.244;2023-02-28T13:19:07;11.02;;;9.93;;
59458;SDS011;45269;43.568;22.244;2023-02-28T13:26:22;6.55;;;5.95;;
59458;SDS011;45269;43.568;22.244;2023-02-28T13:31:18;5.25;;;4.85;;
59458;SDS011;45269;43.568;22.244;2023-02-28T13:38:43;5.38;;;4.90;;
59458;SDS011;45269;43.568;22.244;2023-02-28T13:46:27;12.70;;;10.23;;
59458;SDS011;45269;43.568;22.244;2023-02-28T13:48:53;14.55;;;12.93;;
59458;SDS011;45269;43.568;22.244;2023-02-28T13:59:29;82.97;;;45.25;;
59458;SDS011;45269;43.568;22.244;2023-02-28T14:02:01;45.55;;;30.75;;
59458;SDS011;45269;43.568;22.244;2023-02-28T14:06:56;58.63;;;35.80;;
59458;SDS011;45269;43.568;22.244;2023-02-28T14:09:25;30.17;;;21.15;;
59458;SDS011;45269;43.568;22.244;2023-02-28T14:17:13;88.65;;;50.67;;
59458;SDS011;45269;43.568;22.244;2023-02-28T14:19:39;104.20;;;57.83;;
59458;SDS011;45269;43.568;22.244;2023-02-28T14:32:27;23.33;;;16.48;;
59458;SDS011;45269;43.568;22.244;2023-02-28T14:35:13;23.60;;;17.92;;
59458;SDS011;45269;43.568;22.244;2023-02-28T14:37:41;39.67;;;29.15;;
59458;SDS011;45269;43.568;22.244;2023-02-28T14:42:58;36.38;;;27.35;;
59458;SDS011;45269;43.568;22.244;2023-02-28T14:45:29;16.38;;;11.75;;
59458;SDS011;45269;43.568;22.244;2023-02-28T14:47:55;18.60;;;14.88;;
59458;SDS011;45269;43.568;22.244;2023-02-28T14:50:22;8.93;;;8.02;;
59458;SDS011;45269;43.568;22.244;2023-02-28T14:52:51;29.00;;;23.17;;
59458;SDS011;45269;43.568;22.244;2023-02-28T14:55:17;17.80;;;13.70;;
59458;SDS011;45269;43.568;22.244;2023-02-28T14:57:56;32.78;;;23.58;;
59458;SDS011;45269;43.568;22.244;2023-02-28T15:02:47;11.70;;;9.40;;
59458;SDS011;45269;43.568;22.244;2023-02-28T15:07:37;13.45;;;10.02;;
59458;SDS011;45269;43.568;22.244;2023-02-28T15:10:10;18.25;;;13.15;;
59458;SDS011;45269;43.568;22.244;2023-02-28T15:12:36;9.02;;;7.70;;
59458;SDS011;45269;43.568;22.244;2023-02-28T15:15:02;38.83;;;27.38;;
59458;SDS011;45269;43.568;22.244;2023-02-28T15:17:27;6.32;;;5.35;;
59458;SDS011;45269;43.568;22.244;2023-02-28T15:19:53;20.58;;;15.20;;
59458;SDS011;45269;43.568;22.244;2023-02-28T15:22:20;58.90;;;41.20;;
59458;SDS011;45269;43.568;22.244;2023-02-28T15:24:48;12.45;;;10.93;;
59458;SDS011;45269;43.568;22.244;2023-02-28T15:27:16;45.08;;;29.73;;
59458;SDS011;45269;43.568;22.244;2023-02-28T15:29:47;18.80;;;16.90;;
59458;SDS011;45269;43.568;22.244;2023-02-28T15:32:31;22.67;;;19.17;;
59458;SDS011;45269;43.568;22.244;2023-02-28T15:34:57;22.27;;;18.15;;
59458;SDS011;45269;43.568;22.244;2023-02-28T15:39:51;13.10;;;9.27;;
59458;SDS011;45269;43.568;22.244;2023-02-28T15:42:18;48.20;;;32.42;;
59458;SDS011;45269;43.568;22.244;2023-02-28T15:44:44;61.47;;;39.33;;
59458;SDS011;45269;43.568;22.244;2023-02-28T15:47:17;23.95;;;17.58;;
59458;SDS011;45269;43.568;22.244;2023-02-28T15:49:54;18.73;;;13.55;;
59458;SDS011;45269;43.568;22.244;2023-02-28T15:52:22;80.78;;;42.92;;
59458;SDS011;45269;43.568;22.244;2023-02-28T15:54:49;29.90;;;17.63;;
59458;SDS011;45269;43.568;22.244;2023-02-28T15:57:19;47.28;;;29.77;;
59458;SDS011;45269;43.568;22.244;2023-02-28T15:59:53;33.83;;;24.25;;
59458;SDS011;45269;43.568;22.244;2023-02-28T16:02:20;34.45;;;26.77;;
59458;SDS011;45269;43.568;22.244;2023-02-28T16:04:59;94.55;;;66.28;;
59458;SDS011;45269;43.568;22.244;2023-02-28T16:07:25;40.67;;;30.65;;
59458;SDS011;45269;43.568;22.244;2023-02-28T16:09:51;29.25;;;23.85;;
59458;SDS011;45269;43.568;22.244;2023-02-28T16:12:16;21.98;;;15.30;;
59458;SDS011;45269;43.568;22.244;2023-02-28T16:14:41;25.10;;;21.95;;
59458;SDS011;45269;43.568;22.244;2023-02-28T16:17:12;21.80;;;17.58;;
59458;SDS011;45269;43.568;22.244;2023-02-28T16:19:40;19.35;;;15.63;;
59458;SDS011;45269;43.568;22.244;2023-02-28T16:22:07;17.25;;;15.27;;
59458;SDS011;45269;43.568;22.244;2023-02-28T16:24:33;11.00;;;9.98;;
59458;SDS011;45269;43.568;22.244;2023-02-28T16:26:58;13.55;;;11.57;;
59458;SDS011;45269;43.568;22.244;2023-02-28T16:29:26;22.95;;;17.25;;
59458;SDS011;45269;43.568;22.244;2023-02-28T16:31:52;23.63;;;18.67;;
59458;SDS011;45269;43.568;22.244;2023-02-28T16:34:18;26.98;;;19.75;;
59458;SDS011;45269;43.568;22.244;2023-02-28T16:36:44;78.45;;;42.30;;
59458;SDS011;45269;43.568;22.244;2023-02-28T16:39:11;33.92;;;24.88;;
59458;SDS011;45269;43.568;22.244;2023-02-28T16:41:36;28.65;;;20.92;;
59458;SDS011;45269;43.568;22.244;2023-02-28T16:44:01;12.20;;;10.98;;
59458;SDS011;45269;43.568;22.244;2023-02-28T16:46:28;8.55;;;7.60;;
59458;SDS011;45269;43.568;22.244;2023-02-28T16:48:55;16.10;;;13.75;;
59458;SDS011;45269;43.568;22.244;2023-02-28T16:51:20;50.45;;;31.92;;
59458;SDS011;45269;43.568;22.244;2023-02-28T16:53:45;20.88;;;18.70;;
59458;SDS011;45269;43.568;22.244;2023-02-28T16:56:32;15.40;;;13.52;;
59458;SDS011;45269;43.568;22.244;2023-02-28T16:58:58;26.75;;;21.25;;